createdAt,value
2018-10-15T00:03:25.371Z,100265.73
2018-10-15T00:05:53.389Z,100268.15
2018-10-15T00:08:21.611Z,100272.65
2018-10-15T00:10:49.642Z,100275.69
2018-10-15T00:13:17.722Z,100271.36
2018-10-15T00:15:45.725Z,100270.76
2018-10-15T00:18:13.902Z,100273.19
2018-10-15T00:20:41.998Z,100274.17
2018-10-15T00:23:10.057Z,100278.89
2018-10-15T00:25:38.090Z,100271.90
2018-10-15T00:28:06.385Z,100277.94
2018-10-15T00:30:34.469Z,100277.09
2018-10-15T00:33:02.528Z,100276.38
2018-10-15T00:35:30.581Z,100272.13
2018-10-15T00:37:58.661Z,100271.14
2018-10-15T00:40:26.681Z,100270.38
2018-10-15T00:42:54.698Z,100278.08
2018-10-15T00:45:22.817Z,100276.24
2018-10-15T00:47:50.841Z,100274.16
2018-10-15T00:50:18.866Z,100276.20
2018-10-15T00:52:46.893Z,100280.68
2018-10-15T00:55:14.936Z,100278.06
2018-10-15T00:57:42.973Z,100278.33
2018-10-15T01:00:14.422Z,100277.46
2018-10-15T01:02:42.534Z,100279.75
2018-10-15T01:05:11.494Z,100279.52
2018-10-15T01:07:39.637Z,100269.86
2018-10-15T01:10:08.819Z,100271.77
2018-10-15T01:12:37.227Z,100266.71
2018-10-15T01:15:06.278Z,100269.00
2018-10-15T01:17:34.314Z,100265.94
2018-10-15T01:20:02.364Z,100262.10
2018-10-15T01:22:30.491Z,100264.53
2018-10-15T01:24:58.538Z,100255.80
2018-10-15T01:27:26.604Z,100261.45
2018-10-15T01:29:54.662Z,100263.77
2018-10-15T01:32:22.704Z,100255.80
2018-10-15T01:34:50.754Z,100262.06
2018-10-15T01:37:18.784Z,100264.87
2018-10-15T01:39:46.819Z,100265.48
2018-10-15T01:42:14.899Z,100267.67
2018-10-15T01:44:42.922Z,100268.66
2018-10-15T01:47:10.958Z,100269.03
2018-10-15T01:49:39.021Z,100271.92
2018-10-15T01:52:07.090Z,100273.05
2018-10-15T01:54:35.136Z,100271.60
2018-10-15T01:57:03.199Z,100275.58
2018-10-15T01:59:31.245Z,100275.58
2018-10-15T02:01:59.330Z,100277.19
2018-10-15T02:04:27.359Z,100270.32
2018-10-15T02:06:56.645Z,100267.94
2018-10-15T02:09:24.890Z,100268.30
2018-10-15T02:11:53.234Z,100271.59
2018-10-15T02:14:21.290Z,100270.76
2018-10-15T02:16:49.309Z,100267.37
2018-10-15T02:19:17.410Z,100267.37
2018-10-15T02:21:45.462Z,100263.51
2018-10-15T02:24:13.505Z,100271.96
2018-10-15T02:26:41.796Z,100270.53
2018-10-15T02:29:10.043Z,100272.06
2018-10-15T02:31:38.183Z,100273.27
2018-10-15T02:34:06.469Z,100272.66
2018-10-15T02:36:34.509Z,100269.77
2018-10-15T02:39:02.651Z,100272.31
2018-10-15T02:41:30.726Z,100290.07
2018-10-15T02:43:58.799Z,100289.81
2018-10-15T02:46:26.862Z,100284.05
2018-10-15T02:48:54.921Z,100284.63
2018-10-15T02:51:22.966Z,100292.22
2018-10-15T02:53:51.000Z,100281.63
2018-10-15T02:56:19.037Z,100282.95
2018-10-15T02:58:47.055Z,100278.59
2018-10-15T03:01:15.126Z,100287.27
2018-10-15T03:03:43.206Z,100284.50
2018-10-15T03:06:11.382Z,100284.37
2018-10-15T03:08:39.393Z,100277.95
2018-10-15T03:11:07.418Z,100277.44
2018-10-15T03:13:35.429Z,100287.67
2018-10-15T03:16:03.501Z,100285.72
2018-10-15T03:18:31.514Z,100281.19
2018-10-15T03:20:59.554Z,100281.33
2018-10-15T03:23:27.670Z,100280.03
2018-10-15T03:25:55.719Z,100283.09
2018-10-15T03:28:23.737Z,100286.34
2018-10-15T03:30:51.759Z,100279.94
2018-10-15T03:33:19.841Z,100277.58
2018-10-15T03:35:47.881Z,100279.28
2018-10-15T03:38:16.071Z,100280.61
2018-10-15T03:40:44.093Z,100285.23
2018-10-15T03:43:12.193Z,100292.94
2018-10-15T03:45:40.311Z,100285.95
2018-10-15T03:48:08.330Z,100285.72
2018-10-15T03:50:36.490Z,100280.17
2018-10-15T03:53:04.961Z,100274.86
2018-10-15T03:55:33.013Z,100274.13
2018-10-15T03:58:01.051Z,100274.13
2018-10-15T04:00:29.126Z,100268.09
2018-10-15T04:02:57.170Z,100267.13
2018-10-15T04:05:25.175Z,100269.42
2018-10-15T04:07:53.228Z,100268.59
2018-10-15T04:10:21.259Z,100264.73
2018-10-15T04:12:49.308Z,100266.88
2018-10-15T04:15:17.441Z,100272.22
2018-10-15T04:17:45.493Z,100277.16
2018-10-15T04:20:13.566Z,100273.53
2018-10-15T04:22:48.847Z,100286.30
2018-10-15T04:25:18.634Z,100292.34
2018-10-15T04:27:46.731Z,100298.25
2018-10-15T04:30:15.238Z,100290.01
2018-10-15T04:35:17.741Z,100295.33
2018-10-15T04:37:45.916Z,100295.19
2018-10-15T04:40:14.195Z,100294.48
2018-10-15T04:42:43.433Z,100295.94
2018-10-15T04:45:12.716Z,100299.31
2018-10-15T04:47:41.798Z,100300.79
2018-10-15T04:50:10.284Z,100306.31
2018-10-15T04:52:38.369Z,100306.09
2018-10-15T04:55:06.999Z,100298.48
2018-10-15T04:57:35.339Z,100297.73
2018-10-15T05:00:03.438Z,100305.58
2018-10-15T05:02:31.478Z,100310.53
2018-10-15T05:04:59.650Z,100318.50
2018-10-15T05:07:27.706Z,100322.61
2018-10-15T05:09:55.797Z,100326.59
2018-10-15T05:12:23.990Z,100330.36
2018-10-15T05:14:52.041Z,100327.92
2018-10-15T05:17:20.057Z,100323.84
2018-10-15T05:19:48.097Z,100320.23
2018-10-15T05:22:16.687Z,100317.41
2018-10-15T05:24:44.717Z,100319.95
2018-10-15T05:27:12.758Z,100321.87
2018-10-15T05:29:40.777Z,100324.17
2018-10-15T05:32:08.835Z,100329.09
2018-10-15T05:34:36.950Z,100329.09
2018-10-15T05:37:05.045Z,100330.08
2018-10-15T05:39:33.062Z,100336.08
2018-10-15T05:42:01.203Z,100334.89
2018-10-15T05:44:29.389Z,100330.42
2018-10-15T05:46:57.455Z,100336.08
2018-10-15T05:49:25.503Z,100335.13
2018-10-15T05:51:53.577Z,100343.44
2018-10-15T05:54:28.365Z,100338.14
2018-10-15T05:56:56.407Z,100338.03
2018-10-15T05:59:24.425Z,100338.97
2018-10-15T06:01:52.444Z,100345.01
2018-10-15T06:04:20.532Z,100343.47
2018-10-15T06:06:48.613Z,100347.69
2018-10-15T06:09:16.662Z,100347.58
2018-10-15T06:11:44.675Z,100345.17
2018-10-15T06:14:12.685Z,100357.23
2018-10-15T06:16:41.038Z,100349.50
2018-10-15T06:19:09.053Z,100350.84
2018-10-15T06:21:37.718Z,100357.00
2018-10-15T06:24:06.770Z,100353.16
2018-10-15T06:26:34.817Z,100358.92
2018-10-15T06:29:02.862Z,100361.67
2018-10-15T06:31:30.885Z,100367.52
2018-10-15T06:33:58.986Z,100369.49
2018-10-15T06:36:27.055Z,100368.41
2018-10-15T06:38:55.102Z,100374.08
2018-10-15T06:41:23.136Z,100374.71
2018-10-15T06:43:51.230Z,100373.81
2018-10-15T06:46:19.424Z,100368.04
2018-10-15T06:48:47.393Z,100372.57
2018-10-15T06:51:15.480Z,100373.02
2018-10-15T06:53:43.564Z,100370.90
2018-10-15T06:56:11.626Z,100374.23
2018-10-15T06:58:39.723Z,100377.69
2018-10-15T07:01:07.862Z,100388.25
2018-10-15T07:03:35.882Z,100394.42
2018-10-15T07:06:03.969Z,100399.03
2018-10-15T07:08:32.016Z,100399.39
2018-10-15T07:11:00.237Z,100391.30
2018-10-15T07:13:28.364Z,100402.86
2018-10-15T07:15:56.471Z,100406.75
2018-10-15T07:18:24.530Z,100408.12
2018-10-15T07:20:52.634Z,100407.29
2018-10-15T07:23:20.802Z,100408.56
2018-10-15T07:25:48.949Z,100406.67
2018-10-15T07:28:17.012Z,100402.25
2018-10-15T07:30:45.212Z,100403.74
2018-10-15T07:33:13.267Z,100408.47
2018-10-15T07:35:41.322Z,100413.92
2018-10-15T07:38:09.413Z,100411.72
2018-10-15T07:40:37.426Z,100418.02
2018-10-15T07:43:05.521Z,100420.20
2018-10-15T07:45:33.581Z,100424.11
2018-10-15T07:48:01.664Z,100423.04
2018-10-15T07:50:29.712Z,100422.02
2018-10-15T07:52:57.775Z,100426.64
2018-10-15T07:55:25.867Z,100427.09
2018-10-15T07:57:53.918Z,100426.68
2018-10-15T08:00:24.211Z,100425.41
2018-10-15T08:02:52.733Z,100427.60
2018-10-15T08:05:20.931Z,100430.91
2018-10-15T08:07:49.311Z,100430.59
2018-10-15T08:10:17.375Z,100428.39
2018-10-15T08:12:45.818Z,100437.98
2018-10-15T08:15:15.072Z,100439.01
2018-10-15T08:17:43.914Z,100446.61
2018-10-15T08:20:13.401Z,100449.75
2018-10-15T08:22:42.098Z,100453.97
2018-10-15T08:25:10.198Z,100449.34
2018-10-15T08:27:39.081Z,100449.11
2018-10-15T08:30:09.311Z,100448.20
2018-10-15T08:32:37.585Z,100450.45
2018-10-15T08:35:05.789Z,100445.03
2018-10-15T08:37:33.981Z,100449.36
2018-10-15T08:40:02.126Z,100448.05
2018-10-15T08:42:30.154Z,100445.94
2018-10-15T08:44:58.358Z,100451.13
2018-10-15T08:47:26.424Z,100446.08
2018-10-15T08:49:54.601Z,100456.84
2018-10-15T08:52:22.599Z,100459.43
2018-10-15T08:54:50.583Z,100454.98
2018-10-15T08:57:18.607Z,100461.34
2018-10-15T08:59:46.646Z,100468.03
2018-10-15T09:02:14.727Z,100464.86
2018-10-15T09:04:42.842Z,100463.20
2018-10-15T09:07:10.946Z,100464.88
2018-10-15T09:09:38.934Z,100458.25
2018-10-15T09:12:06.911Z,100463.55
2018-10-15T09:14:35.040Z,100468.38
2018-10-15T09:17:03.011Z,100470.01
2018-10-15T09:19:31.061Z,100479.58
2018-10-15T09:21:59.179Z,100478.05
2018-10-15T09:24:27.223Z,100476.31
2018-10-15T09:26:55.240Z,100469.88
2018-10-15T09:29:23.264Z,100475.03
2018-10-15T09:31:51.294Z,100476.55
2018-10-15T09:34:19.335Z,100476.55
2018-10-15T09:36:47.444Z,100480.64
2018-10-15T09:39:15.567Z,100476.69
2018-10-15T09:41:43.582Z,100475.66
2018-10-15T09:44:11.602Z,100470.48
2018-10-15T09:46:39.643Z,100466.58
2018-10-15T09:49:07.695Z,100465.80
2018-10-15T09:51:35.810Z,100470.34
2018-10-15T09:54:03.966Z,100475.42
2018-10-15T09:56:32.397Z,100470.16
2018-10-15T09:59:00.641Z,100476.66
2018-10-15T10:01:30.649Z,100472.27
2018-10-15T10:03:58.781Z,100476.45
2018-10-15T10:06:26.874Z,100484.01
2018-10-15T10:08:54.967Z,100475.04
2018-10-15T10:11:23.040Z,100479.41
2018-10-15T10:13:51.054Z,100480.45
2018-10-15T10:16:19.104Z,100480.16
2018-10-15T10:18:47.270Z,100473.02
2018-10-15T10:21:15.310Z,100472.13
2018-10-15T10:23:43.383Z,100468.19
2018-10-15T10:26:11.489Z,100468.31
2018-10-15T10:28:39.641Z,100464.41
2018-10-15T10:31:07.600Z,100468.05
2018-10-15T10:36:40.823Z,100461.16
2018-10-15T10:39:10.559Z,100463.40
2018-10-15T10:41:38.670Z,100459.05
2018-10-15T10:44:06.739Z,100462.86
2018-10-15T10:46:34.833Z,100467.08
2018-10-15T10:49:02.878Z,100468.23
2018-10-15T10:51:30.918Z,100469.92
2018-10-15T10:53:59.022Z,100459.56
2018-10-15T10:56:27.056Z,100465.66
2018-10-15T10:58:55.152Z,100460.95
2018-10-15T11:01:23.202Z,100464.92
2018-10-15T11:03:51.274Z,100457.61
2018-10-15T11:06:19.336Z,100459.72
2018-10-15T11:08:47.350Z,100467.53
2018-10-15T11:11:15.377Z,100472.31
2018-10-15T11:13:43.479Z,100463.77
2018-10-15T11:16:11.686Z,100471.48
2018-10-15T11:18:39.761Z,100468.17
2018-10-15T11:21:07.853Z,100469.30
2018-10-15T11:23:35.921Z,100462.41
2018-10-15T11:26:03.986Z,100463.77
2018-10-15T11:28:32.082Z,100462.94
2018-10-15T11:31:00.086Z,100457.87
2018-10-15T11:33:28.185Z,100453.14
2018-10-15T11:35:56.408Z,100448.23
2018-10-15T11:38:24.523Z,100446.64
2018-10-15T11:40:52.562Z,100449.27
2018-10-15T11:43:20.629Z,100455.52
2018-10-15T11:45:48.672Z,100444.56
2018-10-15T11:48:16.716Z,100453.81
2018-10-15T11:50:44.819Z,100453.34
2018-10-15T11:53:12.881Z,100455.16
2018-10-15T11:55:40.939Z,100445.42
2018-10-15T11:58:08.974Z,100444.80
2018-10-15T12:00:37.007Z,100445.36
2018-10-15T12:03:05.452Z,100441.25
2018-10-15T12:05:33.522Z,100441.85
2018-10-15T12:08:01.550Z,100439.04
2018-10-15T12:10:29.597Z,100435.59
2018-10-15T12:12:57.659Z,100434.69
2018-10-15T12:15:26.767Z,100437.78
2018-10-15T12:17:55.100Z,100433.44
2018-10-15T12:20:23.195Z,100429.59
2018-10-15T12:22:51.297Z,100432.88
2018-10-15T12:25:19.322Z,100431.47
2018-10-15T12:27:47.595Z,100433.63
2018-10-15T12:30:16.036Z,100433.50
2018-10-15T12:32:44.554Z,100434.80
2018-10-15T12:35:13.954Z,100434.59
2018-10-15T12:37:43.224Z,100432.58
2018-10-15T12:40:11.979Z,100431.95
2018-10-15T12:42:40.205Z,100432.89
2018-10-15T12:45:09.574Z,100427.25
2018-10-15T12:47:37.710Z,100430.20
2018-10-15T12:50:07.090Z,100429.27
2018-10-15T12:52:35.136Z,100424.75
2018-10-15T12:55:03.208Z,100430.86
2018-10-15T12:57:31.275Z,100431.41
2018-10-15T12:59:59.337Z,100424.45
2018-10-15T13:02:27.399Z,100430.48
2018-10-15T13:05:10.909Z,100432.38
2018-10-15T13:07:38.961Z,100426.87
2018-10-15T13:10:07.005Z,100431.81
2018-10-15T13:12:35.071Z,100429.45
2018-10-15T13:15:03.118Z,100440.55
2018-10-15T13:17:31.185Z,100438.56
2018-10-15T13:19:59.265Z,100436.91
2018-10-15T13:22:27.342Z,100433.49
2018-10-15T13:24:55.418Z,100434.03
2018-10-15T13:27:23.490Z,100433.87
2018-10-15T13:29:51.573Z,100433.95
2018-10-15T13:32:19.598Z,100430.98
2018-10-15T13:34:47.885Z,100438.97
2018-10-15T13:37:15.917Z,100437.63
2018-10-15T13:39:43.974Z,100431.89
2018-10-15T13:42:12.118Z,100433.70
2018-10-15T13:44:40.175Z,100429.95
2018-10-15T13:47:08.553Z,100429.91
2018-10-15T13:49:36.690Z,100434.23
2018-10-15T13:52:05.098Z,100428.59
2018-10-15T13:54:33.205Z,100430.97
2018-10-15T13:57:01.246Z,100427.33
2018-10-15T13:59:29.650Z,100427.33
2018-10-15T14:01:57.684Z,100424.02
2018-10-15T14:04:25.715Z,100427.17
2018-10-15T14:06:53.811Z,100425.81
2018-10-15T14:09:22.031Z,100425.00
2018-10-15T14:11:50.145Z,100427.27
2018-10-15T14:14:18.169Z,100425.02
2018-10-15T14:16:46.672Z,100429.80
2018-10-15T14:19:14.716Z,100426.87
2018-10-15T14:21:42.743Z,100430.09
2018-10-15T14:24:10.879Z,100429.78
2018-10-15T14:26:38.946Z,100431.16
2018-10-15T14:29:06.982Z,100430.47
2018-10-15T14:31:35.010Z,100434.16
2018-10-15T14:34:03.083Z,100436.54
2018-10-15T14:36:31.304Z,100435.88
2018-10-15T14:38:59.327Z,100439.03
2018-10-15T14:41:27.381Z,100445.20
2018-10-15T14:43:55.430Z,100436.84
2018-10-15T14:46:23.514Z,100433.39
2018-10-15T14:48:51.565Z,100435.88
2018-10-15T14:51:19.678Z,100432.33
2018-10-15T14:53:47.787Z,100435.53
2018-10-15T14:56:15.855Z,100436.48
2018-10-15T14:58:43.928Z,100436.09
2018-10-15T15:01:11.947Z,100443.86
2018-10-15T15:03:40.025Z,100439.52
2018-10-15T15:06:08.154Z,100445.91
2018-10-15T15:08:36.195Z,100443.14
2018-10-15T15:11:15.812Z,100447.89
2018-10-15T15:13:55.224Z,100448.65
2018-10-15T15:16:23.279Z,100449.89
2018-10-15T15:18:51.473Z,100452.58
2018-10-15T15:21:19.506Z,100453.40
2018-10-15T15:23:47.585Z,100447.62
2018-10-15T15:26:15.683Z,100448.27
2018-10-15T15:28:43.822Z,100452.47
2018-10-15T15:31:11.871Z,100452.80
2018-10-15T15:33:39.907Z,100453.45
2018-10-15T15:36:07.981Z,100453.56
2018-10-15T15:38:36.131Z,100448.27
2018-10-15T15:41:04.176Z,100459.68
2018-10-15T15:43:32.261Z,100459.62
2018-10-15T15:46:00.298Z,100464.16
2018-10-15T15:48:28.378Z,100461.90
2018-10-15T15:50:56.402Z,100464.04
2018-10-15T15:53:24.474Z,100465.13
2018-10-15T15:55:52.510Z,100469.34
2018-10-15T15:58:20.588Z,100470.28
2018-10-15T16:00:48.626Z,100474.06
2018-10-15T16:03:16.667Z,100476.51
2018-10-15T16:05:44.775Z,100475.99
2018-10-15T16:08:12.856Z,100479.41
2018-10-15T16:10:40.892Z,100474.92
2018-10-15T16:13:08.928Z,100478.33
2018-10-15T16:15:36.987Z,100476.64
2018-10-15T16:18:05.095Z,100477.92
2018-10-15T16:20:33.124Z,100480.03
2018-10-15T16:23:01.196Z,100481.64
2018-10-15T16:25:29.218Z,100488.50
2018-10-15T16:27:57.314Z,100492.28
2018-10-15T16:30:25.456Z,100492.18
2018-10-15T16:32:53.485Z,100497.27
2018-10-15T16:35:21.520Z,100495.94
2018-10-15T16:37:49.550Z,100503.38
2018-10-15T16:40:17.675Z,100503.49
2018-10-15T16:42:45.733Z,100501.46
2018-10-15T16:45:13.931Z,100499.67
2018-10-15T16:47:42.409Z,100512.45
2018-10-15T16:50:12.466Z,100514.30
2018-10-15T16:52:40.631Z,100520.23
2018-10-15T16:55:11.358Z,100513.45
2018-10-15T16:57:40.122Z,100519.34
2018-10-15T17:00:08.738Z,100522.66
2018-10-15T17:02:37.155Z,100525.83
2018-10-15T17:05:06.369Z,100523.72
2018-10-15T17:07:34.439Z,100522.44
2018-10-15T17:10:02.492Z,100519.81
2018-10-15T17:12:30.563Z,100530.17
2018-10-15T17:14:58.652Z,100530.19
2018-10-15T17:17:26.777Z,100530.22
2018-10-15T17:19:54.871Z,100531.79
2018-10-15T17:22:22.967Z,100535.31
2018-10-15T17:24:51.052Z,100534.16
2018-10-15T17:27:19.154Z,100537.20
2018-10-15T17:29:47.288Z,100542.45
2018-10-15T17:32:15.311Z,100545.59
2018-10-15T17:34:43.367Z,100544.10
2018-10-15T17:37:11.450Z,100544.75
2018-10-15T17:39:39.498Z,100544.27
2018-10-15T17:42:07.590Z,100552.30
2018-10-15T17:44:35.715Z,100547.73
2018-10-15T17:47:03.778Z,100551.08
2018-10-15T17:49:31.896Z,100555.77
2018-10-15T17:52:00.387Z,100556.05
2018-10-15T17:54:28.425Z,100547.42
2018-10-15T17:56:56.486Z,100546.86
2018-10-15T17:59:24.557Z,100549.78
2018-10-15T18:01:52.616Z,100559.78
2018-10-15T18:04:20.670Z,100552.34
2018-10-15T18:06:48.916Z,100557.02
2018-10-15T18:09:21.378Z,100557.51
2018-10-15T18:11:49.696Z,100551.08
2018-10-15T18:14:17.763Z,100558.52
2018-10-15T18:16:45.859Z,100557.48
2018-10-15T18:19:13.958Z,100557.30
2018-10-15T18:21:42.159Z,100558.81
2018-10-15T18:24:10.534Z,100560.81
2018-10-15T18:26:38.608Z,100562.05
2018-10-15T18:29:06.937Z,100565.09
2018-10-15T18:31:35.884Z,100564.33
2018-10-15T18:34:03.929Z,100565.66
2018-10-15T18:36:31.978Z,100569.11
2018-10-15T18:39:00.273Z,100572.89
2018-10-15T18:41:28.394Z,100570.33
2018-10-15T18:43:56.484Z,100571.67
2018-10-15T18:46:24.613Z,100570.44
2018-10-15T18:48:52.684Z,100575.41
2018-10-15T18:51:20.778Z,100580.80
2018-10-15T18:53:49.209Z,100574.41
2018-10-15T18:56:17.330Z,100580.73
2018-10-15T18:58:45.487Z,100579.70
2018-10-15T19:01:13.602Z,100578.36
2018-10-15T19:03:41.593Z,100573.98
2018-10-15T19:06:09.678Z,100578.27
2018-10-15T19:08:37.726Z,100571.14
2018-10-15T19:11:06.264Z,100576.41
2018-10-15T19:13:34.420Z,100576.71
2018-10-15T19:16:03.493Z,100582.91
2018-10-15T19:18:31.605Z,100579.61
2018-10-15T19:20:59.743Z,100580.73
2018-10-15T19:23:27.886Z,100578.25
2018-10-15T19:25:55.957Z,100581.97
2018-10-15T19:28:23.977Z,100580.38
2018-10-15T19:30:52.054Z,100577.39
2018-10-15T19:33:20.091Z,100576.61
2018-10-15T19:35:48.143Z,100575.22
2018-10-15T19:38:16.438Z,100583.16
2018-10-15T19:40:44.585Z,100584.28
2018-10-15T19:43:12.650Z,100587.08
2018-10-15T19:45:40.712Z,100588.63
2018-10-15T19:48:08.780Z,100586.03
2018-10-15T19:50:36.810Z,100584.56
2018-10-15T19:53:05.163Z,100575.91
2018-10-15T19:55:33.227Z,100579.79
2018-10-15T19:58:01.571Z,100580.97
2018-10-15T20:00:29.920Z,100579.28
2018-10-15T20:02:57.992Z,100579.19
2018-10-15T20:05:26.217Z,100580.25
2018-10-15T20:07:54.247Z,100578.21
2018-10-15T20:10:22.385Z,100577.00
2018-10-15T20:12:50.369Z,100578.21
2018-10-15T20:15:18.563Z,100583.45
2018-10-15T20:17:47.754Z,100585.07
2018-10-15T20:20:15.843Z,100591.30
2018-10-15T20:22:43.948Z,100591.42
2018-10-15T20:25:12.628Z,100597.88
2018-10-15T20:27:41.050Z,100597.49
2018-10-15T20:30:10.399Z,100607.39
2018-10-15T20:32:38.497Z,100610.23
2018-10-15T20:35:07.532Z,100610.23
2018-10-15T20:37:35.597Z,100613.62
2018-10-15T20:40:04.334Z,100609.84
2018-10-15T20:42:32.429Z,100615.39
2018-10-15T20:45:00.666Z,100612.02
2018-10-15T20:47:28.816Z,100602.68
2018-10-15T20:49:56.877Z,100601.17
2018-10-15T20:52:24.909Z,100601.67
2018-10-15T20:54:52.966Z,100597.67
2018-10-15T20:57:21.130Z,100604.11
2018-10-15T20:59:49.426Z,100604.83
2018-10-15T21:02:17.948Z,100604.83
2018-10-15T21:04:46.073Z,100613.33
2018-10-15T21:07:14.553Z,100615.99
2018-10-15T21:09:43.030Z,100621.25
2018-10-15T21:12:11.485Z,100624.59
2018-10-15T21:14:39.571Z,100621.81
2018-10-15T21:17:07.886Z,100623.08
2018-10-15T21:19:36.054Z,100622.90
2018-10-15T21:22:04.219Z,100624.84
2018-10-15T21:24:32.421Z,100629.29
2018-10-15T21:27:00.684Z,100626.94
2018-10-15T21:29:28.890Z,100628.42
2018-10-15T21:31:57.042Z,100627.66
2018-10-15T21:34:25.199Z,100629.14
2018-10-15T21:36:53.309Z,100627.73
2018-10-15T21:39:21.566Z,100626.36
2018-10-15T21:41:49.643Z,100622.37
2018-10-15T21:44:17.873Z,100624.77
2018-10-15T21:46:46.115Z,100627.13
2018-10-15T21:49:14.226Z,100626.66
2018-10-15T21:51:42.393Z,100626.77
2018-10-15T21:54:10.560Z,100621.33
2018-10-15T21:56:38.714Z,100625.94
2018-10-15T21:59:07.093Z,100630.45
2018-10-15T22:01:35.275Z,100633.11
2018-10-15T22:04:03.425Z,100628.97
2018-10-15T22:06:31.497Z,100633.34
2018-10-15T22:11:39.234Z,100632.02
2018-10-15T22:14:07.842Z,100633.61
2018-10-15T22:16:36.427Z,100635.55
2018-10-15T22:19:04.518Z,100628.05
2018-10-15T22:21:32.672Z,100635.05
2018-10-15T22:24:00.785Z,100632.05
2018-10-15T22:26:28.841Z,100636.03
2018-10-15T22:28:56.933Z,100633.60
2018-10-15T22:31:25.055Z,100638.09
2018-10-15T22:33:53.193Z,100635.45
2018-10-15T22:36:21.382Z,100641.52
2018-10-15T22:38:49.523Z,100636.96
2018-10-15T22:41:17.615Z,100633.06
2018-10-15T22:43:45.710Z,100632.95
2018-10-15T22:46:13.786Z,100629.07
2018-10-15T22:48:41.871Z,100632.24
2018-10-15T22:51:09.970Z,100638.42
2018-10-15T22:53:38.067Z,100638.42
2018-10-15T22:56:06.159Z,100645.95
2018-10-15T22:58:34.332Z,100649.70
2018-10-15T23:01:02.914Z,100649.47
2018-10-15T23:03:30.981Z,100645.00
2018-10-15T23:06:00.121Z,100650.19
2018-10-15T23:08:28.189Z,100650.30
2018-10-15T23:10:56.334Z,100653.34
2018-10-15T23:13:24.497Z,100646.57
2018-10-15T23:15:52.562Z,100649.80
2018-10-15T23:18:20.652Z,100652.25
2018-10-15T23:20:48.825Z,100647.90
2018-10-15T23:23:16.933Z,100654.05
2018-10-15T23:25:45.102Z,100648.86
2018-10-15T23:28:13.228Z,100653.23
2018-10-15T23:30:41.301Z,100660.11
2018-10-15T23:33:09.439Z,100662.96
2018-10-15T23:35:37.565Z,100664.05
2018-10-15T23:38:06.021Z,100661.53
2018-10-15T23:40:34.078Z,100667.93
2018-10-15T23:43:02.527Z,100671.92
2018-10-15T23:45:30.653Z,100666.70
2018-10-15T23:47:58.736Z,100668.77
2018-10-15T23:50:26.883Z,100669.48
2018-10-15T23:52:54.961Z,100667.77
2018-10-15T23:55:23.053Z,100668.86
2018-10-15T23:57:51.114Z,100666.69
